Time;durP1;ratioP1;P1;durP2;ratioP2;P2;SDS_P1;SDS_P2;PMS_P1;PMS_P2;Temp;Humidity;BMP_temperature;BMP_pressure;BME280_temperature;BME280_humidity;BME280_pressure;Samples;Min_cycle;Max_cycle;Signal;HPM_P1;HPM_P2
2022/10/02 00:01:22;;;;;;;;;;;;;;;18.22;51.28;98866.06;4461637;32;34914;-92
2022/10/02 00:03:50;;;;;;;;;;;;;;;18.51;50.56;98868.00;4462043;32;35434;-86
2022/10/02 00:06:20;;;;;;;;;;;;;;;17.92;52.21;98873.75;4466181;32;34901;-86
2022/10/02 00:08:47;;;;;;;;;;;;;;;17.94;52.15;98887.69;4454839;32;34245;-88
2022/10/02 00:11:18;;;;;;;;;;;;;;;16.17;57.03;98883.78;4469235;32;33936;-89
2022/10/02 00:13:49;;;;;;;;;;;;;;;17.43;53.55;98890.44;4469636;32;34324;-91
2022/10/02 00:16:25;;;;;;;;;;;;;;;17.78;52.95;98886.28;4469016;32;34529;-90
2022/10/02 00:18:53;;;;;;;;;;;;;;;18.20;51.12;98881.00;4455016;32;32833;-86
2022/10/02 00:21:25;;;;;;;;;;;;;;;17.56;53.04;98887.59;4456499;32;33764;-89
2022/10/02 00:24:02;;;;;;;;;;;;;;;17.79;52.71;98888.00;4469187;32;34619;-88
2022/10/02 00:26:31;;;;;;;;;;;;;;;17.50;53.70;98896.41;4469132;32;34053;-88
2022/10/02 00:29:08;;;;;;;;;;;;;;;17.47;53.66;98894.72;4455925;32;31684;-86
2022/10/02 00:31:51;;;;;;;;;;;;;;;17.16;54.19;98902.31;4455683;32;34145;-91
2022/10/02 00:34:34;;;;;;;;;;;;;;;17.84;52.62;98914.13;4478849;32;34829;-88
2022/10/02 00:37:10;;;;;;;;;;;;;;;18.58;50.60;98908.97;4468957;32;34680;-86
2022/10/02 00:39:37;;;;;;;;;;;;;;;18.35;51.21;98911.28;4480646;32;33392;-86
2022/10/02 00:42:08;;;;;;;;;;;;;;;17.23;54.30;98924.84;4482648;32;33991;-88
2022/10/02 00:44:42;;;;;;;;;;;;;;;18.12;51.61;98920.53;4483220;32;34424;-86
2022/10/02 00:47:15;;;;;;;;;;;;;;;16.96;54.81;98920.97;4482945;32;34213;-87
2022/10/02 00:49:45;;;;;;;;;;;;;;;17.47;53.36;98918.31;4483371;32;33189;-91
2022/10/02 00:52:22;;;;;;;;;;;;;;;17.36;53.71;98908.94;4468858;32;34298;-90
2022/10/02 00:54:49;;;;;;;;;;;;;;;18.24;51.03;98908.88;4482929;32;37183;-89
2022/10/02 00:57:35;;;;;;;;;;;;;;;17.77;52.55;98916.03;4483002;32;35034;-91
2022/10/02 01:00:02;;;;;;;;;;;;;;;17.74;52.71;98918.69;4468598;32;31530;-87
2022/10/02 01:02:29;;;;;;;;;;;;;;;17.25;54.18;98917.00;4477757;32;33790;-87
2022/10/02 01:04:58;;;;;;;;;;;;;;;16.64;55.44;98907.53;4482839;32;33893;-88
2022/10/02 01:07:25;;;;;;;;;;;;;;;17.35;53.69;98912.44;4455678;32;35302;-85
2022/10/02 01:09:53;;;;;;;;;;;;;;;16.66;55.21;98910.97;4460858;32;33571;-90
2022/10/02 01:12:20;;;;;;;;;;;;;;;17.19;54.12;98904.00;4454392;32;35046;-86
2022/10/02 01:14:47;;;;;;;;;;;;;;;16.67;55.59;98905.72;4455725;32;34145;-88
2022/10/02 01:17:25;;;;;;;;;;;;;;;17.05;54.08;98913.84;4482532;32;34028;-86
2022/10/02 01:19:52;;;;;;;;;;;;;;;17.33;53.81;98922.94;4468554;32;32972;-94
2022/10/02 01:22:19;;;;;;;;;;;;;;;17.33;53.63;98930.81;4470276;32;35067;-86
2022/10/02 01:24:50;;;;;;;;;;;;;;;17.82;52.24;98929.91;4467183;32;34231;-86
2022/10/02 01:27:17;;;;;;;;;;;;;;;18.06;52.11;98932.91;4469499;32;34253;-92
2022/10/02 01:29:45;;;;;;;;;;;;;;;18.14;51.64;98937.06;4469679;32;33221;-94
2022/10/02 01:32:12;;;;;;;;;;;;;;;17.85;52.54;98949.97;4469793;32;34154;-91
2022/10/02 01:34:39;;;;;;;;;;;;;;;18.19;51.44;98953.59;4484188;32;34175;-88
2022/10/02 01:37:07;;;;;;;;;;;;;;;17.53;53.22;98969.75;4470023;32;34958;-89
2022/10/02 01:39:34;;;;;;;;;;;;;;;18.11;51.92;98973.03;4484544;32;33331;-89
2022/10/02 01:42:01;;;;;;;;;;;;;;;17.58;53.15;98977.50;4481029;32;34248;-89
2022/10/02 01:44:29;;;;;;;;;;;;;;;17.68;53.02;98979.09;4483852;32;34267;-90
2022/10/02 01:47:03;;;;;;;;;;;;;;;18.37;50.75;98973.34;4483857;32;34297;-90
2022/10/02 01:49:46;;;;;;;;;;;;;;;18.60;50.22;98979.81;4469873;32;34118;-88
2022/10/02 01:52:13;;;;;;;;;;;;;;;18.07;51.77;98984.47;4469912;32;34245;-89
2022/10/02 01:54:41;;;;;;;;;;;;;;;18.77;49.91;98996.09;4483945;32;34352;-90
2022/10/02 01:57:14;;;;;;;;;;;;;;;18.73;49.97;99004.94;4483975;32;34276;-89
2022/10/02 01:59:46;;;;;;;;;;;;;;;18.46;50.72;99023.00;4469820;32;32843;-90
2022/10/02 02:02:20;;;;;;;;;;;;;;;18.10;51.44;99015.88;4470066;32;32729;-89
2022/10/02 02:04:51;;;;;;;;;;;;;;;18.12;51.56;99019.34;4469867;32;34309;-89
2022/10/02 02:07:24;;;;;;;;;;;;;;;18.40;50.83;99017.00;4473034;32;32256;-92
2022/10/02 02:10:00;;;;;;;;;;;;;;;19.06;49.13;99018.19;4469806;32;31790;-91
2022/10/02 02:12:35;;;;;;;;;;;;;;;18.86;49.36;99027.38;4469634;32;34278;-89
2022/10/02 02:15:15;;;;;;;;;;;;;;;18.69;49.81;99026.88;4469610;32;34504;-92
2022/10/02 02:17:45;;;;;;;;;;;;;;;18.50;50.63;99030.81;4469564;32;34064;-90
2022/10/02 02:20:14;;;;;;;;;;;;;;;19.38;48.63;99028.75;4469593;32;33115;-89
2022/10/02 02:22:43;;;;;;;;;;;;;;;18.15;51.37;99032.41;4469666;32;34058;-91
2022/10/02 02:25:29;;;;;;;;;;;;;;;17.91;51.73;99036.38;4469888;32;34382;-88
2022/10/02 02:27:57;;;;;;;;;;;;;;;18.36;50.62;99034.59;4469418;32;34020;-91
2022/10/02 02:30:25;;;;;;;;;;;;;;;19.15;48.51;99028.47;4456586;32;32588;-91
2022/10/02 02:32:53;;;;;;;;;;;;;;;18.89;48.70;99031.72;4469144;32;34230;-92
2022/10/02 02:35:25;;;;;;;;;;;;;;;18.99;48.56;99035.00;4470359;32;35174;-91
2022/10/02 02:37:54;;;;;;;;;;;;;;;17.77;51.89;99043.63;4469186;32;35137;-90
2022/10/02 02:40:23;;;;;;;;;;;;;;;19.06;48.73;99029.56;4469825;32;33240;-90
2022/10/02 02:42:52;;;;;;;;;;;;;;;18.65;49.89;99033.13;4469143;32;33818;-91
2022/10/02 02:45:21;;;;;;;;;;;;;;;18.47;50.28;99043.09;4469216;32;34292;-91
2022/10/02 02:47:50;;;;;;;;;;;;;;;17.82;52.05;99054.91;4469499;32;35022;-89
2022/10/02 02:50:21;;;;;;;;;;;;;;;17.71;52.38;99049.81;4468820;32;33482;-88
2022/10/02 02:52:48;;;;;;;;;;;;;;;17.64;53.00;99051.69;4469437;32;34147;-91
2022/10/02 02:55:24;;;;;;;;;;;;;;;17.69;52.95;99065.59;4469757;32;34384;-92
2022/10/02 02:57:53;;;;;;;;;;;;;;;18.13;51.52;99050.81;4456143;32;35227;-92
2022/10/02 03:00:21;;;;;;;;;;;;;;;17.38;53.66;99059.12;4469639;32;33268;-89
2022/10/02 03:02:49;;;;;;;;;;;;;;;17.61;53.03;99064.84;4469870;32;34325;-89
2022/10/02 03:05:17;;;;;;;;;;;;;;;18.18;51.24;99069.06;4469673;32;34043;-91
2022/10/02 03:07:49;;;;;;;;;;;;;;;17.46;53.47;99071.22;4469496;32;33882;-90
2022/10/02 03:10:18;;;;;;;;;;;;;;;17.92;52.14;99065.22;4469460;32;33319;-89
2022/10/02 03:12:56;;;;;;;;;;;;;;;17.59;53.13;99074.50;4483609;32;34125;-91
2022/10/02 03:15:27;;;;;;;;;;;;;;;18.02;51.73;99079.00;4469811;32;34980;-91
2022/10/02 03:18:07;;;;;;;;;;;;;;;17.45;53.61;99072.09;4469358;32;34136;-92
2022/10/02 03:20:53;;;;;;;;;;;;;;;17.74;52.65;99074.22;4484054;32;33304;-91
2022/10/02 03:23:23;;;;;;;;;;;;;;;17.48;53.75;99082.53;4483613;32;34815;-92
2022/10/02 03:25:55;;;;;;;;;;;;;;;17.84;52.84;99082.84;4469892;32;34417;-92
2022/10/02 03:28:25;;;;;;;;;;;;;;;17.94;52.26;99081.75;4443949;32;33315;-91
2022/10/02 03:31:12;;;;;;;;;;;;;;;17.78;51.95;99088.19;4471549;32;34153;-89
2022/10/02 03:33:40;;;;;;;;;;;;;;;18.00;52.24;99088.66;4468879;32;34754;-90
2022/10/02 03:36:09;;;;;;;;;;;;;;;18.15;51.92;99093.63;4483943;32;34414;-88
2022/10/02 03:38:36;;;;;;;;;;;;;;;17.02;55.10;99103.34;4468811;32;34633;-92
2022/10/02 03:41:03;;;;;;;;;;;;;;;16.43;56.76;99103.19;4462779;32;34375;-89
2022/10/02 03:43:31;;;;;;;;;;;;;;;17.75;53.13;99101.34;4468913;32;34249;-89
2022/10/02 03:45:58;;;;;;;;;;;;;;;16.65;55.76;99109.03;4483252;32;34069;-92
2022/10/02 03:48:25;;;;;;;;;;;;;;;17.25;54.60;99103.00;4483237;32;33782;-90
2022/10/02 03:50:52;;;;;;;;;;;;;;;17.31;54.20;99102.91;4483451;32;34323;-92
2022/10/02 03:53:21;;;;;;;;;;;;;;;17.97;52.62;99107.94;4483068;32;34181;-89
2022/10/02 03:55:51;;;;;;;;;;;;;;;18.59;50.72;99118.13;4469318;32;34377;-90
2022/10/02 03:58:18;;;;;;;;;;;;;;;18.70;50.28;99115.28;4469181;32;34803;-92
2022/10/02 04:00:45;;;;;;;;;;;;;;;19.16;49.33;99114.28;4469142;32;33392;-92
2022/10/02 04:03:14;;;;;;;;;;;;;;;18.33;51.17;99112.53;4483662;32;34900;-94
2022/10/02 04:05:49;;;;;;;;;;;;;;;17.97;52.21;99110.56;4469109;32;34017;-91
2022/10/02 04:08:17;;;;;;;;;;;;;;;18.78;50.17;99121.25;4468925;32;34274;-90
2022/10/02 04:10:44;;;;;;;;;;;;;;;18.94;49.66;99117.41;4468996;32;33187;-92
2022/10/02 04:13:14;;;;;;;;;;;;;;;18.27;51.14;99120.53;4483011;32;33874;-90
2022/10/02 04:16:00;;;;;;;;;;;;;;;18.57;50.46;99121.69;4482960;32;35191;-89
2022/10/02 04:18:43;;;;;;;;;;;;;;;17.43;53.58;99115.84;4455866;32;33012;-93
2022/10/02 04:21:33;;;;;;;;;;;;;;;17.66;53.51;99132.94;4468969;32;34045;-89
2022/10/02 04:24:03;;;;;;;;;;;;;;;18.31;51.96;99130.06;4472908;32;34924;-90
2022/10/02 04:26:32;;;;;;;;;;;;;;;17.94;52.50;99128.12;4468904;32;34748;-89
2022/10/02 04:29:17;;;;;;;;;;;;;;;18.44;51.07;99135.03;4468828;32;34100;-90
2022/10/02 04:31:49;;;;;;;;;;;;;;;18.88;49.78;99143.81;4459050;32;33366;-89
2022/10/02 04:34:17;;;;;;;;;;;;;;;18.88;49.77;99140.31;4468869;32;34881;-90
2022/10/02 04:37:03;;;;;;;;;;;;;;;18.20;51.60;99140.78;4468569;32;32892;-92
2022/10/02 04:39:54;;;;;;;;;;;;;;;18.62;50.53;99140.81;4468700;32;33976;-88
2022/10/02 04:42:23;;;;;;;;;;;;;;;19.26;48.95;99157.00;4474434;32;33135;-89
2022/10/02 04:44:59;;;;;;;;;;;;;;;19.01;49.26;99172.44;4482676;32;34246;-89
2022/10/02 04:47:36;;;;;;;;;;;;;;;19.20;49.00;99179.88;4482653;32;35366;-91
2022/10/02 04:50:07;;;;;;;;;;;;;;;18.61;50.23;99186.37;4468367;32;34863;-90
2022/10/02 04:52:41;;;;;;;;;;;;;;;18.24;51.19;99169.53;4454541;32;31369;-90
2022/10/02 04:55:08;;;;;;;;;;;;;;;18.64;50.00;99186.31;4467407;32;34684;-89
2022/10/02 04:57:47;;;;;;;;;;;;;;;18.65;50.14;99190.66;4482776;32;35232;-94
2022/10/02 05:00:17;;;;;;;;;;;;;;;18.80;49.74;99206.16;4482755;32;33939;-93
2022/10/02 05:02:56;;;;;;;;;;;;;;;18.88;49.45;99198.13;4468893;32;33026;-89
2022/10/02 05:05:26;;;;;;;;;;;;;;;17.96;52.03;99199.78;4466930;32;33478;-92
2022/10/02 05:07:58;;;;;;;;;;;;;;;18.43;50.73;99191.06;4482066;32;33942;-92
2022/10/02 05:10:25;;;;;;;;;;;;;;;18.27;51.18;99210.63;4454733;32;33836;-90
2022/10/02 05:13:12;;;;;;;;;;;;;;;18.79;49.71;99212.31;4468083;32;33056;-88
2022/10/02 05:15:58;;;;;;;;;;;;;;;18.36;50.99;99210.44;4450432;32;35080;-89
2022/10/02 05:18:31;;;;;;;;;;;;;;;16.89;54.63;99222.22;4482316;32;34262;-89
2022/10/02 05:21:16;;;;;;;;;;;;;;;18.22;51.59;99218.56;4482449;32;34448;-90
2022/10/02 05:23:47;;;;;;;;;;;;;;;18.62;50.14;99216.97;4468287;32;33336;-94
2022/10/02 05:26:18;;;;;;;;;;;;;;;18.55;50.88;99217.97;4468320;32;34109;-88
2022/10/02 05:28:48;;;;;;;;;;;;;;;18.46;51.11;99219.03;4480703;32;34971;-93
2022/10/02 05:31:23;;;;;;;;;;;;;;;19.12;49.57;99225.63;4480909;32;34268;-92
2022/10/02 05:33:56;;;;;;;;;;;;;;;18.69;50.70;99229.09;4468318;32;33500;-91
2022/10/02 05:36:29;;;;;;;;;;;;;;;18.92;49.49;99231.31;4482492;32;34193;-94
2022/10/02 05:39:14;;;;;;;;;;;;;;;19.01;49.42;99227.62;4468062;32;35184;-93
2022/10/02 05:41:42;;;;;;;;;;;;;;;19.36;48.87;99227.75;4468705;32;34118;-94
2022/10/02 05:44:11;;;;;;;;;;;;;;;19.04;49.48;99224.94;4468037;32;33641;-88
2022/10/02 05:46:41;;;;;;;;;;;;;;;18.86;49.85;99237.53;4454556;32;34158;-88
2022/10/02 05:49:19;;;;;;;;;;;;;;;19.14;48.65;99237.00;4466463;32;34867;-90
2022/10/02 05:51:50;;;;;;;;;;;;;;;19.21;48.84;99238.59;4467777;32;33902;-88
2022/10/02 05:54:26;;;;;;;;;;;;;;;19.20;48.33;99239.47;4468654;32;33286;-88
2022/10/02 05:56:55;;;;;;;;;;;;;;;18.92;49.22;99254.94;4469094;32;33744;-89
2022/10/02 05:59:22;;;;;;;;;;;;;;;17.65;52.17;99252.69;4455717;32;36094;-88
2022/10/02 06:01:50;;;;;;;;;;;;;;;18.45;50.60;99241.78;4469695;32;34335;-88
2022/10/02 06:04:17;;;;;;;;;;;;;;;18.12;51.65;99253.72;4468183;32;33216;-92
2022/10/02 06:06:48;;;;;;;;;;;;;;;18.27;50.61;99252.59;4485442;32;34259;-89
2022/10/02 06:09:16;;;;;;;;;;;;;;;19.14;48.63;99250.12;4471249;32;35353;-88
2022/10/02 06:12:06;;;;;;;;;;;;;;;18.42;50.13;99259.34;4470645;32;34450;-89
2022/10/02 06:14:38;;;;;;;;;;;;;;;19.00;49.23;99265.31;4483941;32;32994;-87
2022/10/02 06:17:20;;;;;;;;;;;;;;;19.83;47.14;99260.03;4472141;32;34910;-88
2022/10/02 06:19:51;;;;;;;;;;;;;;;20.06;46.19;99262.09;4466703;32;35148;-92
2022/10/02 06:22:19;;;;;;;;;;;;;;;19.51;47.93;99279.13;4459880;32;33866;-89
2022/10/02 06:24:47;;;;;;;;;;;;;;;18.14;50.88;99282.56;4457717;32;33344;-96
2022/10/02 06:27:17;;;;;;;;;;;;;;;18.33;50.38;99283.97;4473375;32;33889;-93
2022/10/02 06:29:47;;;;;;;;;;;;;;;19.04;49.00;99278.34;4462493;32;34371;-88
2022/10/02 06:32:20;;;;;;;;;;;;;;;19.00;48.72;99294.22;4469894;32;34886;-89
2022/10/02 06:34:48;;;;;;;;;;;;;;;19.18;48.85;99302.59;4484282;32;34301;-94
2022/10/02 06:37:34;;;;;;;;;;;;;;;19.05;49.10;99297.59;4470210;32;34105;-92
2022/10/02 06:40:34;;;;;;;;;;;;;;;19.46;47.39;99294.13;4484121;32;34860;-89
2022/10/02 06:43:13;;;;;;;;;;;;;;;19.68;47.87;99305.09;4448709;32;35002;-86
2022/10/02 06:45:44;;;;;;;;;;;;;;;18.40;50.00;99306.59;4484183;32;33439;-89
2022/10/02 06:48:28;;;;;;;;;;;;;;;19.11;48.67;99314.13;4469828;32;35044;-96
2022/10/02 06:50:56;;;;;;;;;;;;;;;19.07;49.39;99312.44;4473805;32;34293;-90
2022/10/02 06:53:27;;;;;;;;;;;;;;;18.67;50.03;99318.38;4484076;32;34028;-89
2022/10/02 06:56:00;;;;;;;;;;;;;;;18.95;49.20;99320.56;4469966;32;34360;-95
2022/10/02 06:58:47;;;;;;;;;;;;;;;17.26;53.18;99337.94;4469936;32;33457;-87
2022/10/02 07:01:19;;;;;;;;;;;;;;;18.80;48.99;99339.25;4484231;32;34418;-94
2022/10/02 07:03:53;;;;;;;;;;;;;;;18.73;49.67;99341.09;4469600;32;34305;-91
2022/10/02 07:06:29;;;;;;;;;;;;;;;18.85;49.26;99335.63;4484031;32;33046;-90
2022/10/02 07:09:12;;;;;;;;;;;;;;;19.21;47.87;99338.47;4483908;32;34249;-87
2022/10/02 07:11:42;;;;;;;;;;;;;;;18.76;49.44;99353.31;4483812;32;34642;-87
2022/10/02 07:14:14;;;;;;;;;;;;;;;18.71;49.76;99359.53;4483081;32;34952;-89
2022/10/02 07:16:46;;;;;;;;;;;;;;;19.69;46.91;99357.66;4469085;32;33380;-87
2022/10/02 07:19:29;;;;;;;;;;;;;;;20.08;47.09;99351.56;4468261;32;33909;-86
2022/10/02 07:22:15;;;;;;;;;;;;;;;19.52;48.18;99351.00;4482932;32;34007;-85
2022/10/02 07:25:21;;;;;;;;;;;;;;;20.01;46.56;99350.84;4482837;32;34110;-93
2022/10/02 07:28:09;;;;;;;;;;;;;;;19.27;48.59;99342.72;4477847;32;33443;-89
2022/10/02 07:30:57;;;;;;;;;;;;;;;19.95;47.03;99353.59;4469143;32;34208;-92
2022/10/02 07:33:27;;;;;;;;;;;;;;;18.68;50.17;99354.28;4469116;32;35410;-92
2022/10/02 07:36:10;;;;;;;;;;;;;;;18.53;51.13;99358.94;4469333;32;34108;-93
2022/10/02 07:38:42;;;;;;;;;;;;;;;19.35;48.63;99356.59;4468602;32;33993;-94
2022/10/02 07:41:09;;;;;;;;;;;;;;;18.93;49.46;99362.63;4469781;32;33923;-85
2022/10/02 07:43:39;;;;;;;;;;;;;;;19.30;48.68;99366.34;4483514;32;34561;-94
2022/10/02 07:46:17;;;;;;;;;;;;;;;19.54;48.34;99364.97;4483307;32;35053;-93
2022/10/02 07:48:48;;;;;;;;;;;;;;;19.43;47.88;99365.19;4457579;32;33180;-92
2022/10/02 07:54:42;;;;;;;;;;;;;;;18.32;50.64;99363.63;4483306;32;34381;-85
2022/10/02 07:57:12;;;;;;;;;;;;;;;19.34;48.38;99370.63;4403069;32;35068;-89
2022/10/02 07:59:42;;;;;;;;;;;;;;;19.50;48.10;99371.19;4403584;32;33350;-93
2022/10/02 08:02:16;;;;;;;;;;;;;;;18.86;49.19;99376.75;4444408;32;33933;-87
2022/10/02 08:04:43;;;;;;;;;;;;;;;18.52;50.06;99383.44;4455755;32;33851;-90
2022/10/02 08:07:12;;;;;;;;;;;;;;;18.13;50.61;99375.28;4483097;32;33884;-86
2022/10/02 08:09:44;;;;;;;;;;;;;;;19.64;47.83;99384.97;4483575;32;33190;-93
2022/10/02 08:12:21;;;;;;;;;;;;;;;20.14;46.55;99381.22;4453613;32;35571;-85
2022/10/02 08:14:49;;;;;;;;;;;;;;;19.62;47.68;99386.75;4467635;32;35103;-92
2022/10/02 08:17:26;;;;;;;;;;;;;;;20.22;46.81;99388.09;4453172;32;35085;-89
2022/10/02 08:19:54;;;;;;;;;;;;;;;19.29;48.11;99383.87;4467915;32;33179;-91
2022/10/02 08:22:27;;;;;;;;;;;;;;;19.70;46.85;99374.31;4468507;32;34020;-86
2022/10/02 08:24:56;;;;;;;;;;;;;;;20.26;45.54;99380.06;4483046;32;34521;-84
2022/10/02 08:27:24;;;;;;;;;;;;;;;20.68;44.32;99377.34;4468869;32;33927;-85
2022/10/02 08:29:55;;;;;;;;;;;;;;;19.88;46.26;99388.84;4481816;32;32597;-89
2022/10/02 08:32:24;;;;;;;;;;;;;;;21.13;43.46;99390.25;4453164;32;33828;-90
2022/10/02 08:34:51;;;;;;;;;;;;;;;20.12;45.55;99398.84;4453357;32;34383;-90
2022/10/02 08:37:25;;;;;;;;;;;;;;;19.60;46.88;99393.78;4467489;32;33750;-90
2022/10/02 08:39:58;;;;;;;;;;;;;;;19.79;47.17;99397.78;4468138;32;33600;-88
2022/10/02 08:42:38;;;;;;;;;;;;;;;20.08;45.68;99402.44;4482914;32;34158;-92
2022/10/02 08:45:17;;;;;;;;;;;;;;;19.34;46.68;99397.78;4468874;32;34741;-86
2022/10/02 08:47:50;;;;;;;;;;;;;;;19.98;45.74;99397.41;4482759;32;34209;-91
2022/10/02 08:50:28;;;;;;;;;;;;;;;20.82;43.93;99406.00;4482505;32;33879;-91
2022/10/02 08:53:07;;;;;;;;;;;;;;;19.98;45.03;99394.78;4482883;32;33743;-85
2022/10/02 08:55:49;;;;;;;;;;;;;;;19.50;46.64;99397.47;4482640;32;35222;-90
2022/10/02 08:58:26;;;;;;;;;;;;;;;19.89;45.41;99401.09;4467467;32;33549;-91
2022/10/02 09:01:14;;;;;;;;;;;;;;;20.23;45.16;99414.41;4466599;32;33260;-85
2022/10/02 09:03:59;;;;;;;;;;;;;;;20.70;44.98;99404.53;4467343;32;33990;-87
2022/10/02 09:06:26;;;;;;;;;;;;;;;20.51;45.34;99396.22;4480840;32;34910;-90
2022/10/02 09:09:09;;;;;;;;;;;;;;;20.97;43.51;99389.78;4481249;32;34381;-86
2022/10/02 09:11:43;;;;;;;;;;;;;;;19.57;45.32;99393.84;4481470;32;33457;-87
2022/10/02 09:14:33;;;;;;;;;;;;;;;20.94;43.50;99395.12;4452989;32;34277;-89
2022/10/02 09:17:07;;;;;;;;;;;;;;;20.33;43.94;99396.59;4471456;32;32541;-88
2022/10/02 09:20:09;;;;;;;;;;;;;;;20.28;45.31;99399.34;4452541;32;34023;-89
2022/10/02 09:22:49;;;;;;;;;;;;;;;19.99;44.97;99407.03;4388556;32;33732;-92
2022/10/02 09:25:37;;;;;;;;;;;;;;;21.36;42.19;99394.91;4458946;32;34372;-88
2022/10/02 09:28:23;;;;;;;;;;;;;;;21.62;41.96;99395.06;4466731;32;34122;-87
2022/10/02 09:31:11;;;;;;;;;;;;;;;21.26;42.32;99394.28;4466636;32;33953;-90
2022/10/02 09:33:57;;;;;;;;;;;;;;;21.17;42.29;99386.63;4456876;32;32915;-87
2022/10/02 09:36:28;;;;;;;;;;;;;;;21.69;42.30;99376.41;4463688;32;34154;-86
2022/10/02 09:39:06;;;;;;;;;;;;;;;21.72;40.87;99379.84;4464438;32;34293;-89
2022/10/02 09:41:41;;;;;;;;;;;;;;;21.65;41.72;99378.28;4468940;32;35013;-89
2022/10/02 09:44:28;;;;;;;;;;;;;;;21.01;41.22;99380.03;4459881;32;33483;-85
2022/10/02 09:47:01;;;;;;;;;;;;;;;21.47;39.95;99371.75;4482841;32;35441;-88
2022/10/02 09:49:47;;;;;;;;;;;;;;;21.87;40.87;99367.97;4458712;32;34027;-92
2022/10/02 09:52:20;;;;;;;;;;;;;;;21.36;40.49;99363.28;4478650;32;33926;-85
2022/10/02 09:55:00;;;;;;;;;;;;;;;20.75;42.04;99376.28;4484124;32;33101;-92
2022/10/02 09:57:40;;;;;;;;;;;;;;;21.59;39.28;99378.44;4473028;32;34018;-87
2022/10/02 10:00:16;;;;;;;;;;;;;;;21.39;40.30;99365.84;4484430;32;34073;-87
2022/10/02 10:03:04;;;;;;;;;;;;;;;20.13;41.20;99378.63;4483951;32;34794;-86
2022/10/02 10:05:33;;;;;;;;;;;;;;;20.36;41.64;99371.06;4469924;32;32818;-86
2022/10/02 10:08:20;;;;;;;;;;;;;;;20.48;41.34;99366.41;4483926;32;33686;-93
2022/10/02 10:11:06;;;;;;;;;;;;;;;21.25;40.89;99346.84;4480975;32;34372;-90
2022/10/02 10:13:36;;;;;;;;;;;;;;;21.08;40.50;99342.06;4483670;32;35074;-90
2022/10/02 10:16:24;;;;;;;;;;;;;;;21.49;39.50;99348.00;4484053;32;34064;-87
2022/10/02 10:19:11;;;;;;;;;;;;;;;21.16;40.08;99349.75;4483008;32;33669;-94
2022/10/02 10:21:50;;;;;;;;;;;;;;;20.55;40.97;99353.09;4483591;32;34251;-89
2022/10/02 10:24:30;;;;;;;;;;;;;;;21.28;40.47;99350.28;4484054;32;33933;-90
2022/10/02 10:27:12;;;;;;;;;;;;;;;21.21;40.49;99345.22;4483818;32;34395;-93
2022/10/02 10:30:03;;;;;;;;;;;;;;;21.80;39.30;99340.03;4483924;32;34212;-93
2022/10/02 10:32:33;;;;;;;;;;;;;;;21.49;39.70;99345.34;4468698;32;34356;-87
2022/10/02 10:35:19;;;;;;;;;;;;;;;21.45;39.87;99346.34;4484119;32;34458;-86
2022/10/02 10:40:59;;;;;;;;;;;;;;;21.85;39.31;99344.25;4467893;32;33141;-90
2022/10/02 10:43:40;;;;;;;;;;;;;;;21.57;39.36;99344.22;4454178;32;34922;-89
2022/10/02 10:46:23;;;;;;;;;;;;;;;21.25;39.23;99341.56;4467811;32;34000;-89
2022/10/02 10:48:58;;;;;;;;;;;;;;;21.12;39.54;99341.94;4468334;32;33092;-87
2022/10/02 10:51:33;;;;;;;;;;;;;;;21.04;39.21;99337.78;4470600;32;33805;-89
2022/10/02 10:54:12;;;;;;;;;;;;;;;21.39;38.76;99347.38;4466083;32;34586;-93
2022/10/02 10:56:43;;;;;;;;;;;;;;;20.64;40.25;99338.81;4466204;32;34105;-90
2022/10/02 10:59:29;;;;;;;;;;;;;;;21.70;38.13;99343.84;4468087;32;34056;-90
2022/10/02 11:02:12;;;;;;;;;;;;;;;20.49;41.10;99339.16;4467769;32;34576;-90
2022/10/02 11:04:43;;;;;;;;;;;;;;;21.33;40.33;99344.94;4467958;32;35066;-88
2022/10/02 11:07:33;;;;;;;;;;;;;;;21.35;39.76;99343.94;4453671;32;34983;-88
2022/10/02 11:10:10;;;;;;;;;;;;;;;21.24;39.81;99345.13;4467984;32;33078;-87
2022/10/02 11:12:46;;;;;;;;;;;;;;;21.75;39.63;99353.37;4467821;32;34016;-89
2022/10/02 11:15:46;;;;;;;;;;;;;;;21.53;39.99;99357.53;4482047;32;34232;-90
2022/10/02 11:18:27;;;;;;;;;;;;;;;20.86;41.35;99366.34;4440284;32;34211;-88
2022/10/02 11:20:54;;;;;;;;;;;;;;;21.99;39.60;99353.53;4467923;32;34240;-86
2022/10/02 11:23:34;;;;;;;;;;;;;;;21.20;40.49;99349.62;4481555;32;34351;-87
2022/10/02 11:26:20;;;;;;;;;;;;;;;22.22;38.87;99343.13;4469034;32;33874;-87
2022/10/02 11:29:00;;;;;;;;;;;;;;;21.56;40.55;99353.03;4482177;32;35328;-89
2022/10/02 11:31:45;;;;;;;;;;;;;;;22.46;38.52;99343.25;4483236;32;33743;-86
2022/10/02 11:34:23;;;;;;;;;;;;;;;22.46;38.60;99337.97;4483276;32;34269;-92
2022/10/02 11:36:51;;;;;;;;;;;;;;;22.46;38.27;99335.31;4483570;32;33967;-86
2022/10/02 11:39:25;;;;;;;;;;;;;;;23.01;37.08;99328.19;4483237;32;34241;-86
2022/10/02 11:41:57;;;;;;;;;;;;;;;22.71;38.51;99340.66;4483026;32;33470;-90
2022/10/02 11:44:43;;;;;;;;;;;;;;;22.49;38.74;99312.31;4482914;32;33803;-85
2022/10/02 11:47:29;;;;;;;;;;;;;;;22.26;38.83;99325.41;4483020;32;34377;-89
2022/10/02 11:50:15;;;;;;;;;;;;;;;21.73;39.74;99330.56;4483644;32;33902;-87
2022/10/02 11:52:48;;;;;;;;;;;;;;;21.92;39.73;99323.81;4482954;32;33092;-94
2022/10/02 11:55:22;;;;;;;;;;;;;;;21.50;40.72;99324.19;4482841;32;33859;-90
2022/10/02 11:58:08;;;;;;;;;;;;;;;21.77;40.97;99327.78;4470515;32;34002;-92
2022/10/02 12:00:35;;;;;;;;;;;;;;;21.61;42.66;99329.16;4481721;32;34084;-87
2022/10/02 12:03:20;;;;;;;;;;;;;;;21.82;41.99;99322.34;4482393;32;32923;-88
2022/10/02 12:05:54;;;;;;;;;;;;;;;21.82;42.08;99332.91;4468300;32;35149;-84
2022/10/02 12:08:33;;;;;;;;;;;;;;;21.66;44.12;99342.19;4468824;32;35217;-91
2022/10/02 12:11:04;;;;;;;;;;;;;;;21.28;43.88;99345.00;4457732;32;35000;-95
2022/10/02 12:13:40;;;;;;;;;;;;;;;21.41;43.44;99336.78;4483492;32;34209;-89
2022/10/02 12:16:15;;;;;;;;;;;;;;;21.77;42.21;99337.47;4470525;32;34646;-87
2022/10/02 12:18:53;;;;;;;;;;;;;;;20.86;44.20;99333.84;4483175;32;35333;-88
2022/10/02 12:26:59;;;;;;;;;;;;;;;21.58;43.40;99321.31;4470327;32;34496;-88
2022/10/02 12:29:29;;;;;;;;;;;;;;;21.05;44.58;99314.00;4454871;32;33750;-88
2022/10/02 12:32:15;;;;;;;;;;;;;;;20.78;44.94;99310.34;4482618;32;34530;-91
2022/10/02 12:35:01;;;;;;;;;;;;;;;21.73;42.36;99307.66;4482986;32;33914;-87
2022/10/02 12:37:35;;;;;;;;;;;;;;;21.44;43.61;99305.03;4482462;32;34211;-94
2022/10/02 12:40:11;;;;;;;;;;;;;;;21.47;43.87;99295.25;4468704;32;34485;-92
2022/10/02 12:42:59;;;;;;;;;;;;;;;21.95;42.38;99285.91;4468594;32;33873;-91
2022/10/02 12:45:27;;;;;;;;;;;;;;;22.35;42.52;99285.50;4482547;32;33042;-88
2022/10/02 12:48:10;;;;;;;;;;;;;;;21.69;43.71;99290.22;4482697;32;35165;-86
2022/10/02 12:50:56;;;;;;;;;;;;;;;20.59;45.53;99286.25;4468018;32;35226;-91
2022/10/02 12:53:34;;;;;;;;;;;;;;;20.24;46.40;99279.22;4468687;32;35156;-88
2022/10/02 12:56:05;;;;;;;;;;;;;;;20.83;45.43;99275.97;4467997;32;33150;-88
2022/10/02 12:58:45;;;;;;;;;;;;;;;21.22;44.75;99278.41;4482327;32;33787;-88
2022/10/02 13:01:30;;;;;;;;;;;;;;;20.76;45.61;99275.28;4453478;32;35089;-91
2022/10/02 13:04:04;;;;;;;;;;;;;;;21.29;44.72;99272.03;4467308;32;34126;-87
2022/10/02 13:06:47;;;;;;;;;;;;;;;21.52;44.75;99266.12;4467638;32;33117;-85
2022/10/02 13:09:16;;;;;;;;;;;;;;;22.25;43.06;99257.66;4467371;32;34494;-90
2022/10/02 13:11:55;;;;;;;;;;;;;;;21.48;44.92;99267.09;4467317;32;34380;-87
2022/10/02 13:14:25;;;;;;;;;;;;;;;21.90;44.18;99258.81;4467119;32;34316;-90
2022/10/02 13:17:11;;;;;;;;;;;;;;;21.71;44.35;99254.09;4471163;32;33698;-91
2022/10/02 13:19:57;;;;;;;;;;;;;;;22.04;43.37;99248.63;4468255;32;32402;-90
2022/10/02 13:22:32;;;;;;;;;;;;;;;21.01;45.70;99253.50;4483199;32;34143;-95
2022/10/02 13:25:16;;;;;;;;;;;;;;;20.58;46.78;99254.69;4465656;32;33825;-94
2022/10/02 13:27:49;;;;;;;;;;;;;;;20.37;47.10;99256.94;4482835;32;34252;-94
2022/10/02 13:30:20;;;;;;;;;;;;;;;20.90;46.01;99244.13;4482971;32;34021;-91
2022/10/02 13:32:47;;;;;;;;;;;;;;;21.20;45.50;99243.31;4468428;32;35274;-88
2022/10/02 13:35:17;;;;;;;;;;;;;;;21.04;45.78;99253.44;4482114;32;34263;-92
2022/10/02 13:37:44;;;;;;;;;;;;;;;21.55;44.43;99244.91;4482298;32;33024;-91
2022/10/02 13:40:18;;;;;;;;;;;;;;;21.67;44.45;99234.00;4482422;32;34233;-92